createdAt,value
2019-04-28T00:01:55.325Z,11.35
2019-04-28T00:04:21.688Z,11.83
2019-04-28T00:06:48.157Z,11.50
2019-04-28T00:09:15.397Z,9.45
2019-04-28T00:11:41.852Z,11.53
2019-04-28T00:14:11.844Z,12.47
2019-04-28T00:16:37.846Z,13.22
2019-04-28T00:19:04.117Z,17.02
2019-04-28T00:21:51.660Z,14.95
2019-04-28T00:24:25.781Z,13.22
2019-04-28T00:26:56.682Z,15.65
2019-04-28T00:29:23.129Z,14.87
2019-04-28T00:31:51.299Z,15.80
2019-04-28T00:34:21.273Z,20.72
2019-04-28T00:36:51.223Z,12.55
2019-04-28T00:39:17.523Z,15.00
2019-04-28T00:41:43.829Z,15.90
2019-04-28T00:44:11.857Z,14.40
2019-04-28T00:49:07.230Z,16.00
2019-04-28T00:51:33.563Z,17.80
2019-04-28T00:54:00.829Z,14.80
2019-04-28T00:56:27.548Z,16.02
2019-04-28T00:58:53.793Z,13.93
2019-04-28T01:01:40.738Z,15.43
2019-04-28T01:04:08.447Z,14.45
2019-04-28T01:06:35.877Z,14.33
2019-04-28T01:09:05.852Z,12.70
2019-04-28T01:11:33.982Z,15.98
2019-04-28T01:14:01.758Z,15.08
2019-04-28T01:16:36.318Z,11.97
2019-04-28T01:19:10.111Z,17.40
2019-04-28T01:21:55.088Z,14.73
2019-04-28T01:24:21.309Z,16.73
2019-04-28T01:26:50.806Z,13.30
2019-04-28T01:29:37.059Z,14.60
2019-04-28T01:32:23.790Z,18.52
2019-04-28T01:34:50.020Z,17.12
2019-04-28T01:37:16.384Z,15.63
2019-04-28T01:39:42.697Z,15.45
2019-04-28T01:42:10.605Z,16.02
2019-04-28T01:44:37.002Z,14.25
2019-04-28T01:47:03.413Z,19.82
2019-04-28T01:49:29.642Z,21.57
2019-04-28T01:51:57.653Z,17.90
2019-04-28T01:54:23.878Z,14.40
2019-04-28T01:56:50.310Z,15.50
2019-04-28T01:59:16.524Z,19.52
2019-04-28T02:01:42.741Z,18.48
2019-04-28T02:04:10.096Z,25.35
2019-04-28T02:06:37.001Z,21.15
2019-04-28T02:09:06.427Z,24.25
2019-04-28T02:11:34.562Z,20.85
2019-04-28T02:14:00.977Z,19.27
2019-04-28T02:16:27.189Z,23.85
2019-04-28T02:18:53.425Z,20.50
2019-04-28T02:21:29.464Z,21.75
2019-04-28T02:23:59.542Z,19.40
2019-04-28T02:26:25.898Z,23.87
2019-04-28T02:28:52.123Z,22.58
2019-04-28T02:31:24.145Z,20.88
2019-04-28T02:33:46.477Z,19.85
2019-04-28T02:36:12.794Z,21.73
2019-04-28T02:38:41.381Z,22.42
2019-04-28T02:41:07.268Z,24.20
2019-04-28T02:43:33.574Z,20.30
2019-04-28T02:46:00.663Z,20.50
2019-04-28T02:48:27.071Z,22.22
2019-04-28T02:51:01.343Z,17.70
2019-04-28T02:53:33.119Z,18.70
2019-04-28T02:55:57.817Z,21.12
2019-04-28T02:58:24.021Z,22.77
2019-04-28T03:01:04.953Z,18.45
2019-04-28T03:05:46.749Z,18.55
2019-04-28T03:08:13.087Z,19.48
2019-04-28T03:10:40.993Z,24.18
2019-04-28T03:15:33.720Z,19.05
2019-04-28T03:18:02.043Z,19.23
2019-04-28T03:20:30.554Z,19.75
2019-04-28T03:22:56.659Z,18.65
2019-04-28T03:25:24.770Z,18.82
2019-04-28T03:27:52.890Z,19.85
2019-04-28T03:30:37.498Z,19.05
2019-04-28T03:33:11.664Z,18.70
2019-04-28T03:35:33.828Z,17.32
2019-04-28T03:38:01.171Z,18.82
2019-04-28T03:40:27.765Z,17.50
2019-04-28T03:42:53.986Z,18.90
2019-04-28T03:45:22.130Z,18.98
2019-04-28T03:50:16.433Z,17.25
2019-04-28T03:52:42.657Z,18.35
2019-04-28T03:55:11.101Z,20.25
2019-04-28T03:57:36.990Z,20.20
2019-04-28T04:00:06.435Z,19.55
2019-04-28T04:02:32.649Z,23.00
2019-04-28T04:05:00.783Z,18.30
2019-04-28T04:07:27.014Z,19.17
2019-04-28T04:10:02.098Z,20.90
2019-04-28T04:12:33.259Z,18.73
2019-04-28T04:15:03.938Z,17.65
2019-04-28T04:17:33.575Z,17.48
2019-04-28T04:20:01.795Z,19.75
2019-04-28T04:24:54.464Z,18.60
2019-04-28T04:27:21.086Z,16.75
2019-04-28T04:29:47.405Z,18.87
2019-04-28T04:32:22.717Z,17.65
2019-04-28T04:34:41.846Z,23.15
2019-04-28T04:37:12.187Z,28.02
2019-04-28T04:39:37.021Z,17.62
2019-04-28T04:42:03.246Z,16.77
2019-04-28T04:44:30.981Z,19.15
2019-04-28T04:46:57.365Z,16.95
2019-04-28T04:49:23.598Z,20.72
2019-04-28T04:51:50.911Z,20.12
2019-04-28T04:54:17.409Z,17.10
2019-04-28T04:56:43.638Z,19.55
2019-04-28T04:59:10.332Z,21.33
2019-04-28T05:01:50.745Z,18.35
2019-04-28T05:04:29.599Z,16.07
2019-04-28T05:06:55.830Z,19.40
2019-04-28T05:09:22.149Z,17.17
2019-04-28T05:11:49.921Z,17.80
2019-04-28T05:14:16.399Z,18.05
2019-04-28T05:16:42.647Z,19.48
2019-04-28T05:19:10.148Z,18.10
2019-04-28T05:21:36.701Z,18.00
2019-04-28T05:24:15.923Z,19.92
2019-04-28T05:26:42.570Z,19.77
2019-04-28T05:31:33.605Z,18.67
2019-04-28T05:34:00.114Z,20.00
2019-04-28T05:36:26.434Z,18.20
2019-04-28T05:38:52.648Z,15.70
2019-04-28T05:41:19.617Z,19.42
2019-04-28T05:43:46.027Z,19.90
2019-04-28T05:46:12.344Z,17.15
2019-04-28T05:48:40.873Z,22.70
2019-04-28T05:51:11.889Z,20.08
2019-04-28T05:53:40.357Z,19.00
2019-04-28T05:56:14.620Z,20.25
2019-04-28T05:58:50.468Z,20.37
2019-04-28T06:01:21.290Z,20.43
2019-04-28T06:03:49.681Z,20.95
2019-04-28T06:06:16.388Z,19.25
2019-04-28T06:08:50.996Z,19.57
2019-04-28T06:11:31.385Z,18.05
2019-04-28T06:13:59.869Z,18.02
2019-04-28T06:16:26.430Z,18.62
2019-04-28T06:18:52.655Z,20.00
2019-04-28T06:21:18.873Z,15.18
2019-04-28T06:23:45.093Z,17.15
2019-04-28T06:26:11.378Z,19.30
2019-04-28T06:28:37.702Z,18.23
2019-04-28T06:31:04.026Z,17.27
2019-04-28T06:33:30.245Z,17.20
2019-04-28T06:35:56.480Z,19.23
2019-04-28T06:38:22.881Z,17.17
2019-04-28T06:40:49.105Z,18.52
2019-04-28T06:43:15.332Z,19.95
2019-04-28T06:45:41.554Z,18.05
2019-04-28T06:48:07.785Z,17.42
2019-04-28T06:50:34.105Z,17.73
2019-04-28T06:53:02.807Z,20.90
2019-04-28T06:55:28.432Z,16.73
2019-04-28T06:57:54.655Z,17.92
2019-04-28T07:00:20.863Z,18.82
2019-04-28T07:02:47.081Z,17.85
2019-04-28T07:05:13.321Z,17.77
2019-04-28T07:07:39.529Z,19.20
2019-04-28T07:10:05.967Z,20.15
2019-04-28T07:12:32.269Z,17.17
2019-04-28T07:14:58.485Z,17.10
2019-04-28T07:17:24.785Z,17.30
2019-04-28T07:19:52.937Z,17.32
2019-04-28T07:22:24.069Z,17.70
2019-04-28T07:24:50.277Z,22.27
2019-04-28T07:27:16.505Z,17.17
2019-04-28T07:29:42.813Z,15.90
2019-04-28T07:32:09.133Z,18.80
2019-04-28T07:34:35.361Z,19.65
2019-04-28T07:37:01.574Z,16.15
2019-04-28T07:39:27.789Z,18.82
2019-04-28T07:41:54.116Z,19.67
2019-04-28T07:44:20.429Z,15.70
2019-04-28T07:46:46.646Z,16.60
2019-04-28T07:49:12.873Z,20.08
2019-04-28T07:51:44.000Z,17.17
2019-04-28T07:54:12.126Z,19.52
2019-04-28T07:56:38.342Z,18.62
2019-04-28T07:59:04.563Z,21.90
2019-04-28T08:01:30.883Z,16.20
2019-04-28T08:03:57.602Z,20.32
2019-04-28T08:06:23.941Z,16.70
2019-04-28T08:08:50.165Z,19.92
2019-04-28T08:11:16.410Z,19.57
2019-04-28T08:13:42.621Z,21.97
2019-04-28T08:16:08.845Z,17.62
2019-04-28T08:18:35.064Z,18.12
2019-04-28T08:21:01.302Z,18.65
2019-04-28T08:23:27.621Z,19.98
2019-04-28T08:25:53.846Z,17.37
2019-04-28T08:28:20.050Z,17.98
2019-04-28T08:30:46.261Z,17.85
2019-04-28T08:33:14.389Z,20.10
2019-04-28T08:35:40.597Z,17.25
2019-04-28T08:38:06.817Z,18.57
2019-04-28T08:40:33.073Z,21.77
2019-04-28T08:42:59.289Z,17.52
2019-04-28T08:45:25.517Z,21.25
2019-04-28T08:47:54.607Z,18.98
2019-04-28T08:50:21.396Z,18.27
2019-04-28T08:52:47.669Z,15.90
2019-04-28T08:55:13.893Z,18.17
2019-04-28T08:57:40.118Z,19.77
2019-04-28T09:00:07.937Z,20.52
2019-04-28T09:02:34.177Z,19.30
2019-04-28T09:05:00.392Z,17.42
2019-04-28T09:07:26.605Z,18.95
2019-04-28T09:09:52.832Z,17.27
2019-04-28T09:12:19.046Z,16.52
2019-04-28T09:14:45.261Z,16.62
2019-04-28T09:17:11.505Z,17.00
2019-04-28T09:19:37.737Z,17.75
2019-04-28T09:22:04.449Z,19.30
2019-04-28T09:24:30.677Z,16.82
2019-04-28T09:26:56.989Z,17.32
2019-04-28T09:29:23.214Z,17.73
2019-04-28T09:31:49.625Z,17.98
2019-04-28T09:34:27.530Z,16.42
2019-04-28T09:36:43.957Z,17.05
2019-04-28T09:39:12.091Z,20.17
2019-04-28T09:44:19.464Z,15.63
2019-04-28T09:46:47.580Z,20.10
2019-04-28T09:49:13.875Z,16.27
2019-04-28T09:51:40.104Z,17.50
2019-04-28T09:54:06.318Z,18.42
2019-04-28T09:56:32.546Z,16.30
2019-04-28T09:58:58.770Z,17.35
2019-04-28T10:01:24.997Z,16.30
2019-04-28T10:03:51.319Z,19.70
2019-04-28T10:06:17.773Z,16.48
2019-04-28T10:08:43.987Z,17.95
2019-04-28T10:11:10.221Z,17.07
2019-04-28T10:13:36.477Z,15.23
2019-04-28T10:16:02.979Z,15.38
2019-04-28T10:18:29.285Z,17.62
2019-04-28T10:20:55.625Z,17.30
2019-04-28T10:23:21.981Z,16.10
2019-04-28T10:25:48.197Z,16.02
2019-04-28T10:28:14.441Z,18.92
2019-04-28T10:30:40.656Z,19.62
2019-04-28T10:33:06.875Z,16.52
2019-04-28T10:35:33.201Z,19.45
2019-04-28T10:37:59.421Z,19.32
2019-04-28T10:40:35.365Z,18.25
2019-04-28T10:43:01.578Z,16.62
2019-04-28T10:45:29.704Z,16.80
2019-04-28T10:47:56.134Z,15.35
2019-04-28T10:50:22.348Z,20.23
2019-04-28T10:52:48.561Z,19.70
2019-04-28T10:55:14.889Z,14.20
2019-04-28T10:57:41.169Z,16.67
2019-04-28T11:00:08.952Z,15.60
2019-04-28T11:02:35.189Z,14.53
2019-04-28T11:05:09.279Z,15.38
2019-04-28T11:07:35.689Z,13.85
2019-04-28T11:10:08.038Z,16.23
2019-04-28T11:12:34.253Z,17.35
2019-04-28T11:15:00.480Z,15.80
2019-04-28T11:17:26.822Z,14.58
2019-04-28T11:19:53.132Z,13.72
2019-04-28T11:22:19.756Z,13.30
2019-04-28T11:24:46.075Z,19.67
2019-04-28T11:27:12.388Z,14.83
2019-04-28T11:29:38.736Z,12.50
2019-04-28T11:32:05.249Z,13.35
2019-04-28T11:34:45.062Z,15.75
2019-04-28T11:37:11.385Z,16.25
2019-04-28T11:39:39.614Z,15.40
2019-04-28T11:44:31.944Z,16.80
2019-04-28T11:46:58.267Z,14.55
2019-04-28T11:49:24.627Z,14.53
2019-04-28T11:51:51.046Z,18.45
2019-04-28T11:54:17.533Z,19.10
2019-04-28T11:56:43.761Z,13.60
2019-04-28T11:59:09.977Z,15.50
2019-04-28T12:01:36.204Z,15.38
2019-04-28T12:04:04.336Z,14.53
2019-04-28T12:08:58.645Z,11.60
2019-04-28T12:14:10.088Z,12.50
2019-04-28T12:16:55.077Z,12.82
2019-04-28T12:19:23.188Z,13.90
2019-04-28T12:21:49.401Z,12.47
2019-04-28T12:24:15.725Z,15.15
2019-04-28T12:26:41.936Z,13.32
2019-04-28T12:29:09.153Z,15.00
2019-04-28T12:31:35.405Z,17.02
2019-04-28T12:34:01.629Z,14.15
2019-04-28T12:36:27.898Z,11.20
2019-04-28T12:38:54.176Z,12.53
2019-04-28T12:41:20.457Z,13.72
2019-04-28T12:43:46.670Z,12.55
2019-04-28T12:46:13.009Z,14.18
2019-04-28T12:48:39.330Z,16.87
2019-04-28T12:51:05.649Z,16.48
2019-04-28T12:53:32.000Z,11.33
2019-04-28T12:55:58.305Z,11.22
2019-04-28T12:58:24.521Z,14.03
2019-04-28T13:00:55.677Z,14.95
2019-04-28T13:03:33.001Z,13.88
2019-04-28T13:06:05.544Z,13.10
2019-04-28T13:08:29.354Z,12.80
2019-04-28T13:10:55.673Z,11.05
2019-04-28T13:13:22.037Z,10.50
2019-04-28T13:15:48.258Z,10.03
2019-04-28T13:18:14.490Z,12.33
2019-04-28T13:20:41.726Z,15.03
2019-04-28T13:23:07.942Z,10.48
2019-04-28T13:25:34.152Z,11.43
2019-04-28T13:28:00.384Z,10.25
2019-04-28T13:30:26.713Z,14.35
2019-04-28T13:32:53.018Z,10.55
2019-04-28T13:35:19.482Z,11.15
2019-04-28T13:37:45.769Z,10.55
2019-04-28T13:40:29.248Z,11.33
2019-04-28T13:42:55.625Z,10.60
2019-04-28T13:45:23.814Z,10.55
2019-04-28T13:50:24.432Z,11.33
2019-04-28T13:52:50.750Z,13.00
2019-04-28T13:55:27.799Z,11.22
2019-04-28T13:57:55.109Z,10.30
2019-04-28T14:00:39.984Z,12.67
2019-04-28T14:03:26.280Z,9.45
2019-04-28T14:06:03.465Z,12.03
2019-04-28T14:08:29.874Z,12.47
2019-04-28T14:10:56.091Z,17.10
2019-04-28T14:13:22.511Z,12.35
2019-04-28T14:15:48.830Z,9.18
2019-04-28T14:18:15.120Z,9.03
2019-04-28T14:20:41.345Z,9.85
2019-04-28T14:23:07.683Z,10.43
2019-04-28T14:25:34.785Z,9.35
2019-04-28T14:28:01.919Z,12.58
2019-04-28T14:30:28.207Z,11.73
2019-04-28T14:32:54.469Z,11.73
2019-04-28T14:35:20.786Z,9.68
2019-04-28T14:37:47.010Z,12.23
2019-04-28T14:40:13.426Z,14.45
2019-04-28T14:42:39.646Z,11.30
2019-04-28T14:45:07.437Z,13.15
2019-04-28T14:47:33.648Z,10.18
2019-04-28T14:50:02.678Z,9.38
2019-04-28T14:52:28.021Z,12.18
2019-04-28T14:54:54.343Z,13.08
2019-04-28T14:57:20.662Z,10.95
2019-04-28T14:59:46.940Z,9.28
2019-04-28T15:02:31.622Z,13.22
2019-04-28T15:05:02.894Z,11.57
2019-04-28T15:07:40.734Z,10.65
2019-04-28T15:10:09.605Z,10.32
2019-04-28T15:12:36.120Z,9.70
2019-04-28T15:15:04.649Z,11.35
2019-04-28T15:17:31.102Z,16.67
2019-04-28T15:19:57.413Z,11.85
2019-04-28T15:22:23.693Z,11.48
2019-04-28T15:24:49.925Z,14.00
2019-04-28T15:27:16.143Z,21.68
2019-04-28T15:29:42.353Z,8.60
2019-04-28T15:32:08.577Z,10.75
2019-04-28T15:34:34.846Z,10.35
2019-04-28T15:37:09.467Z,12.43
2019-04-28T15:39:29.209Z,11.65
2019-04-28T15:41:55.414Z,16.48
2019-04-28T15:44:21.856Z,9.15
2019-04-28T15:46:48.144Z,11.88
2019-04-28T15:49:14.353Z,10.23
2019-04-28T15:51:40.645Z,10.10
2019-04-28T15:54:06.922Z,12.30
2019-04-28T15:56:40.857Z,11.25
2019-04-28T15:59:07.184Z,12.23
2019-04-28T16:01:33.525Z,13.18
2019-04-28T16:03:59.748Z,12.95
2019-04-28T16:06:25.969Z,13.58
2019-04-28T16:08:52.193Z,10.23
2019-04-28T16:11:18.413Z,10.45
2019-04-28T16:13:44.629Z,10.98
2019-04-28T16:16:11.869Z,11.75
2019-04-28T16:18:38.145Z,9.83
2019-04-28T16:21:04.561Z,13.78
2019-04-28T16:23:30.885Z,10.30
2019-04-28T16:25:57.104Z,11.45
2019-04-28T16:28:23.425Z,9.23
2019-04-28T16:30:49.673Z,10.63
2019-04-28T16:33:15.897Z,10.32
2019-04-28T16:35:42.221Z,12.78
2019-04-28T16:38:08.458Z,9.43
2019-04-28T16:40:37.057Z,10.20
2019-04-28T16:43:05.877Z,8.90
2019-04-28T16:45:33.205Z,12.78
2019-04-28T16:47:59.425Z,10.82
2019-04-28T16:50:25.644Z,10.28
2019-04-28T16:52:51.917Z,10.75
2019-04-28T16:55:20.053Z,14.35
2019-04-28T16:57:48.280Z,12.15
2019-04-28T17:00:16.505Z,9.38
2019-04-28T17:02:43.422Z,9.80
2019-04-28T17:05:10.346Z,10.60
2019-04-28T17:07:36.565Z,10.43
2019-04-28T17:10:05.792Z,12.43
2019-04-28T17:12:32.121Z,9.10
2019-04-28T17:14:58.403Z,13.10
2019-04-28T17:17:24.685Z,12.25
2019-04-28T17:19:50.997Z,10.10
2019-04-28T17:22:17.349Z,9.40
2019-04-28T17:24:43.573Z,12.78
2019-04-28T17:27:09.895Z,10.28
2019-04-28T17:29:37.888Z,13.48
2019-04-28T17:32:04.446Z,13.90
2019-04-28T17:34:30.757Z,14.40
2019-04-28T17:36:57.012Z,12.35
2019-04-28T17:39:24.223Z,12.45
2019-04-28T17:41:50.461Z,15.10
2019-04-28T17:44:17.251Z,10.43
2019-04-28T17:47:03.901Z,14.83
2019-04-28T17:49:34.537Z,12.37
2019-04-28T17:52:00.849Z,10.70
2019-04-28T17:54:27.065Z,10.70
2019-04-28T17:56:53.520Z,10.90
2019-04-28T17:59:19.862Z,11.65
2019-04-28T18:02:00.101Z,10.93
2019-04-28T18:04:30.983Z,12.75
2019-04-28T18:06:59.109Z,11.40
2019-04-28T18:09:26.637Z,11.08
2019-04-28T18:11:52.984Z,9.53
2019-04-28T18:14:19.309Z,13.30
2019-04-28T18:16:47.549Z,11.70
2019-04-28T18:21:41.737Z,13.28
2019-04-28T18:24:08.025Z,11.18
2019-04-28T18:26:34.333Z,14.15
2019-04-28T18:29:00.538Z,11.00
2019-04-28T18:31:34.239Z,9.65
2019-04-28T18:34:11.457Z,10.63
2019-04-28T18:36:39.596Z,17.23
2019-04-28T18:39:25.005Z,9.80
2019-04-28T18:42:09.763Z,9.53
2019-04-28T18:44:36.079Z,10.08
2019-04-28T18:47:02.493Z,17.00
2019-04-28T18:49:28.825Z,12.15
2019-04-28T18:51:55.121Z,9.20
2019-04-28T18:54:21.597Z,9.18
2019-04-28T18:56:47.917Z,11.08
2019-04-28T18:59:14.140Z,11.57
2019-04-28T19:01:42.289Z,9.83
2019-04-28T19:04:08.612Z,8.23
2019-04-28T19:06:34.868Z,9.95
2019-04-28T19:09:05.757Z,11.38
2019-04-28T19:11:38.369Z,9.93
2019-04-28T19:14:15.455Z,9.15
2019-04-28T19:16:46.498Z,10.68
2019-04-28T19:19:14.610Z,11.12
2019-04-28T19:21:42.746Z,18.42
2019-04-28T19:26:35.177Z,11.33
2019-04-28T19:29:01.547Z,9.25
2019-04-28T19:31:41.238Z,10.65
2019-04-28T19:34:07.465Z,11.45
2019-04-28T19:36:33.689Z,10.18
2019-04-28T19:39:03.514Z,11.97
2019-04-28T19:41:29.937Z,12.98
2019-04-28T19:43:57.257Z,9.57
2019-04-28T19:46:23.488Z,13.70
2019-04-28T19:48:49.707Z,14.00
2019-04-28T19:51:30.775Z,14.68
2019-04-28T19:53:45.969Z,14.93
2019-04-28T19:56:20.119Z,12.25
2019-04-28T19:58:50.854Z,12.03
2019-04-28T20:01:25.044Z,10.60
2019-04-28T20:03:51.373Z,12.58
2019-04-28T20:06:17.610Z,12.37
2019-04-28T20:08:43.841Z,12.68
2019-04-28T20:11:10.081Z,14.40
2019-04-28T20:13:36.429Z,13.00
2019-04-28T20:16:02.937Z,13.40
2019-04-28T20:18:29.636Z,12.28
2019-04-28T20:20:56.222Z,14.18
2019-04-28T20:23:22.655Z,16.30
2019-04-28T20:25:48.990Z,12.63
2019-04-28T20:28:15.310Z,14.07
2019-04-28T20:30:41.517Z,12.65
2019-04-28T20:33:07.977Z,11.90
2019-04-28T20:35:36.276Z,16.95
2019-04-28T20:38:10.455Z,16.57
2019-04-28T20:40:41.699Z,11.35
2019-04-28T20:43:09.833Z,14.68
2019-04-28T20:45:36.049Z,15.43
2019-04-28T20:48:03.280Z,13.15
2019-04-28T20:50:29.589Z,17.75
2019-04-28T20:52:57.087Z,13.35
2019-04-28T20:55:24.173Z,13.58
2019-04-28T20:57:50.394Z,14.50
2019-04-28T21:00:16.821Z,13.90
2019-04-28T21:02:44.373Z,11.63
2019-04-28T21:05:10.725Z,14.63
2019-04-28T21:07:37.049Z,13.30
2019-04-28T21:10:04.580Z,15.85
2019-04-28T21:12:30.788Z,14.30
2019-04-28T21:14:57.019Z,13.15
2019-04-28T21:17:23.329Z,15.08
2019-04-28T21:19:49.565Z,15.15
2019-04-28T21:22:15.785Z,15.35
2019-04-28T21:24:42.005Z,16.50
2019-04-28T21:27:08.225Z,17.57
2019-04-28T21:29:34.510Z,14.05
2019-04-28T21:32:00.736Z,14.47
2019-04-28T21:34:26.965Z,15.13
2019-04-28T21:36:53.185Z,15.13
2019-04-28T21:39:19.413Z,14.15
2019-04-28T21:41:45.625Z,13.55
2019-04-28T21:44:30.326Z,11.12
2019-04-28T21:47:07.140Z,17.73
2019-04-28T21:49:35.268Z,12.43
2019-04-28T21:52:01.565Z,16.45
2019-04-28T21:54:27.884Z,12.90
2019-04-28T21:56:54.116Z,17.27
2019-04-28T21:59:20.365Z,17.05
2019-04-28T22:01:46.695Z,15.15
2019-04-28T22:04:13.152Z,15.53
2019-04-28T22:06:39.473Z,12.73
2019-04-28T22:09:05.880Z,13.70
2019-04-28T22:14:00.098Z,15.28
2019-04-28T22:16:26.409Z,14.35
2019-04-28T22:18:52.653Z,11.57
2019-04-28T22:21:18.872Z,13.80
2019-04-28T22:23:55.713Z,14.78
2019-04-28T22:26:40.488Z,12.23
2019-04-28T22:29:06.705Z,11.90
2019-04-28T22:31:33.094Z,12.43
2019-04-28T22:34:00.320Z,13.17
2019-04-28T22:36:26.653Z,14.85
2019-04-28T22:38:52.869Z,14.10
2019-04-28T22:41:19.079Z,14.03
2019-04-28T22:43:45.296Z,15.85
2019-04-28T22:46:11.513Z,13.05
2019-04-28T22:48:37.849Z,14.35
2019-04-28T22:51:04.093Z,14.58
2019-04-28T22:53:32.309Z,14.93
2019-04-28T22:58:28.436Z,14.68
2019-04-28T23:01:15.038Z,16.02
2019-04-28T23:04:01.558Z,18.55
2019-04-28T23:06:27.885Z,13.78
2019-04-28T23:08:54.110Z,16.67
2019-04-28T23:11:20.532Z,12.95
2019-04-28T23:13:46.745Z,12.65
2019-04-28T23:16:13.172Z,15.38
2019-04-28T23:18:39.513Z,13.32
2019-04-28T23:21:24.393Z,13.35
2019-04-28T23:23:50.649Z,13.75
2019-04-28T23:26:16.858Z,16.65
2019-04-28T23:28:43.073Z,14.85
2019-04-28T23:31:09.441Z,11.70
2019-04-28T23:33:35.769Z,13.18
2019-04-28T23:36:02.084Z,16.90
2019-04-28T23:38:28.305Z,12.33
2019-04-28T23:41:13.121Z,10.70
2019-04-28T23:43:39.350Z,13.48
2019-04-28T23:46:05.565Z,14.38
2019-04-28T23:48:31.772Z,14.40
2019-04-28T23:51:11.889Z,13.10
2019-04-28T23:53:58.137Z,12.98
2019-04-28T23:56:24.483Z,14.63
2019-04-28T23:58:50.692Z,12.98
